createdAt,value
2022-12-01T00:02:45.224Z,4.56
2022-12-01T00:06:46.997Z,4.53
2022-12-01T00:10:49.288Z,4.47
2022-12-01T00:14:55.136Z,4.39
2022-12-01T00:18:58.903Z,4.32
2022-12-01T00:23:01.718Z,4.25
2022-12-01T00:27:03.579Z,4.19
2022-12-01T00:31:12.348Z,4.12
2022-12-01T00:35:15.029Z,4.13
2022-12-01T00:39:16.873Z,4.12
2022-12-01T00:43:18.546Z,4.12
2022-12-01T00:47:20.387Z,4.12
2022-12-01T00:51:22.033Z,4.13
2022-12-01T00:55:23.666Z,4.17
2022-12-01T00:59:25.435Z,4.18
2022-12-01T01:03:28.116Z,4.18
2022-12-01T01:07:30.195Z,4.22
2022-12-01T01:11:31.923Z,4.26
2022-12-01T01:15:33.856Z,4.27
2022-12-01T01:19:35.600Z,4.29
2022-12-01T01:23:37.643Z,4.32
2022-12-01T01:27:39.335Z,4.33
2022-12-01T01:31:41.147Z,4.34
2022-12-01T01:35:42.806Z,4.38
2022-12-01T01:39:44.500Z,4.41
2022-12-01T01:43:55.966Z,4.43
2022-12-01T01:48:00.528Z,4.46
2022-12-01T01:52:04.676Z,4.46
2022-12-01T01:56:08.899Z,4.46
2022-12-01T02:00:16.067Z,4.46
2022-12-01T02:04:20.492Z,4.46
2022-12-01T02:08:22.356Z,4.42
2022-12-01T02:13:01.157Z,4.41
2022-12-01T02:17:44.113Z,4.40
2022-12-01T02:22:18.460Z,4.38
2022-12-01T02:26:48.040Z,4.34
2022-12-01T02:31:04.590Z,4.33
2022-12-01T02:35:15.528Z,4.34
2022-12-01T02:39:32.283Z,4.35
2022-12-01T02:44:02.039Z,4.34
2022-12-01T02:48:09.209Z,4.37
2022-12-01T02:52:11.619Z,4.36
2022-12-01T02:56:16.174Z,4.36
2022-12-01T03:00:18.500Z,4.35
2022-12-01T03:04:49.352Z,4.33
2022-12-01T03:09:06.486Z,4.31
2022-12-01T03:13:14.248Z,4.30
2022-12-01T03:17:20.785Z,4.27
2022-12-01T03:21:31.305Z,4.23
2022-12-01T03:25:33.056Z,4.20
2022-12-01T03:29:41.364Z,4.17
2022-12-01T03:33:48.801Z,4.13
2022-12-01T03:37:59.297Z,4.08
2022-12-01T03:42:08.952Z,4.04
2022-12-01T03:46:33.186Z,4.01
2022-12-01T03:50:59.740Z,3.99
2022-12-01T03:55:21.028Z,3.97
2022-12-01T03:59:24.926Z,3.95
2022-12-01T04:03:26.894Z,3.94
2022-12-01T04:07:28.601Z,3.93
2022-12-01T04:11:48.938Z,3.91
2022-12-01T04:15:52.074Z,3.88
2022-12-01T04:19:53.823Z,3.86
2022-12-01T04:24:01.682Z,3.89
2022-12-01T04:28:03.433Z,3.91
2022-12-01T04:32:05.331Z,3.90
2022-12-01T04:36:07.401Z,3.91
2022-12-01T04:40:09.963Z,3.90
2022-12-01T04:44:11.860Z,3.92
2022-12-01T04:48:13.593Z,3.92
2022-12-01T04:52:15.472Z,3.95
2022-12-01T04:56:17.509Z,3.98
2022-12-01T05:00:19.341Z,4.00
2022-12-01T05:04:21.207Z,4.04
2022-12-01T05:08:22.885Z,4.08
2022-12-01T05:12:24.857Z,4.11
2022-12-01T05:16:29.239Z,4.16
2022-12-01T05:20:49.758Z,4.17
2022-12-01T05:24:51.536Z,4.15
2022-12-01T05:28:53.213Z,4.15
2022-12-01T05:32:55.101Z,4.16
2022-12-01T05:36:56.849Z,4.13
2022-12-01T05:40:58.575Z,4.06
2022-12-01T05:45:00.257Z,4.01
2022-12-01T05:49:01.959Z,4.02
2022-12-01T05:53:03.613Z,4.03
2022-12-01T05:57:05.307Z,4.03
2022-12-01T06:01:07.387Z,4.06
2022-12-01T06:05:09.937Z,4.07
2022-12-01T06:09:11.645Z,4.09
2022-12-01T06:13:13.674Z,4.09
2022-12-01T06:17:15.396Z,4.08
2022-12-01T06:21:17.090Z,4.06
2022-12-01T06:25:18.898Z,4.06
2022-12-01T06:29:20.643Z,4.05
2022-12-01T06:33:22.507Z,4.04
2022-12-01T06:37:24.260Z,4.05
2022-12-01T06:41:25.961Z,4.07
2022-12-01T06:45:27.785Z,4.07
2022-12-01T06:49:29.567Z,4.10
2022-12-01T06:53:31.372Z,4.11
2022-12-01T06:57:33.106Z,4.13
2022-12-01T07:01:34.899Z,4.13
2022-12-01T07:05:37.059Z,4.15
2022-12-01T07:09:39.468Z,4.21
2022-12-01T07:13:42.631Z,4.25
2022-12-01T07:17:44.298Z,4.28
2022-12-01T07:21:46.052Z,4.30
2022-12-01T07:25:47.741Z,4.33
2022-12-01T07:29:49.718Z,4.35
2022-12-01T07:33:52.497Z,4.38
2022-12-01T07:37:56.022Z,4.38
2022-12-01T07:41:57.701Z,4.41
2022-12-01T07:46:22.230Z,4.44
2022-12-01T07:50:25.131Z,4.45
2022-12-01T07:54:26.985Z,4.47
2022-12-01T07:58:30.064Z,4.50
2022-12-01T08:02:31.830Z,4.51
2022-12-01T08:06:33.707Z,4.53
2022-12-01T08:10:36.240Z,4.57
2022-12-01T08:14:37.997Z,4.58
2022-12-01T08:18:41.214Z,4.61
2022-12-01T08:22:42.969Z,4.66
2022-12-01T08:26:44.676Z,4.68
2022-12-01T08:30:47.341Z,4.73
2022-12-01T08:34:53.378Z,4.79
2022-12-01T08:38:56.063Z,4.83
2022-12-01T08:42:57.900Z,4.89
2022-12-01T08:46:59.682Z,4.94
2022-12-01T08:51:03.776Z,5.00
2022-12-01T08:55:06.648Z,5.01
2022-12-01T08:59:09.035Z,5.07
2022-12-01T09:03:10.748Z,5.08
2022-12-01T09:07:15.127Z,5.09
2022-12-01T09:11:18.669Z,5.12
2022-12-01T09:15:20.332Z,5.15
2022-12-01T09:19:25.070Z,5.18
2022-12-01T09:23:27.130Z,5.19
2022-12-01T09:27:28.789Z,5.26
2022-12-01T09:31:30.852Z,5.31
2022-12-01T09:35:34.134Z,5.33
2022-12-01T09:39:35.831Z,5.34
2022-12-01T09:43:45.813Z,5.31
2022-12-01T09:47:47.847Z,5.27
2022-12-01T09:51:52.443Z,5.26
2022-12-01T09:55:59.270Z,5.24
2022-12-01T10:00:16.516Z,5.26
2022-12-01T10:04:29.602Z,5.26
2022-12-01T10:08:36.625Z,5.27
2022-12-01T10:12:38.452Z,5.31
2022-12-01T10:16:51.400Z,5.34
2022-12-01T10:21:23.431Z,5.37
2022-12-01T10:25:38.670Z,5.40
2022-12-01T10:30:00.671Z,5.45
2022-12-01T10:34:08.104Z,5.46
2022-12-01T10:38:22.005Z,5.46
2022-12-01T10:42:37.848Z,5.48
2022-12-01T10:46:55.736Z,5.48
2022-12-01T10:51:15.609Z,5.52
2022-12-01T10:55:23.420Z,5.56
2022-12-01T10:59:48.628Z,5.58
2022-12-01T11:04:27.291Z,5.64
2022-12-01T11:08:39.368Z,5.69
2022-12-01T11:12:43.346Z,5.72
2022-12-01T11:16:47.452Z,5.74
2022-12-01T11:21:14.198Z,5.78
2022-12-01T11:25:21.796Z,5.81
2022-12-01T11:29:31.991Z,5.82
2022-12-01T11:33:44.823Z,5.84
2022-12-01T11:38:27.717Z,5.90
2022-12-01T11:42:25.752Z,5.95
2022-12-01T11:46:50.154Z,6.02
2022-12-01T11:51:08.157Z,6.05
2022-12-01T11:55:12.686Z,6.10
2022-12-01T11:59:25.937Z,6.14
2022-12-01T12:03:44.808Z,6.16
2022-12-01T12:08:10.666Z,6.18
2022-12-01T12:12:29.359Z,6.19
2022-12-01T12:17:08.844Z,6.18
2022-12-01T12:21:12.512Z,6.17
2022-12-01T12:25:47.986Z,6.14
2022-12-01T12:30:00.883Z,6.15
2022-12-01T12:34:13.837Z,6.18
2022-12-01T12:38:24.717Z,6.20
2022-12-01T12:42:43.642Z,6.20
2022-12-01T12:46:52.966Z,6.21
2022-12-01T12:51:09.586Z,6.22
2022-12-01T12:55:18.886Z,6.23
2022-12-01T12:59:26.387Z,6.24
2022-12-01T13:03:59.765Z,6.23
2022-12-01T13:08:06.948Z,6.24
2022-12-01T13:12:15.888Z,6.23
2022-12-01T13:16:22.593Z,6.23
2022-12-01T13:20:29.943Z,6.25
2022-12-01T13:24:31.687Z,6.25
2022-12-01T13:28:55.295Z,6.26
2022-12-01T13:33:03.984Z,6.27
2022-12-01T13:37:06.216Z,6.28
2022-12-01T13:41:13.809Z,6.27
2022-12-01T13:45:19.253Z,6.25
2022-12-01T13:49:51.624Z,6.24
2022-12-01T13:53:53.529Z,6.22
2022-12-01T13:57:58.350Z,6.22
2022-12-01T14:02:20.129Z,6.21
2022-12-01T14:06:24.700Z,6.20
2022-12-01T14:10:30.600Z,6.17
2022-12-01T14:14:39.070Z,6.14
2022-12-01T14:18:44.388Z,6.12
2022-12-01T14:22:50.440Z,6.11
2022-12-01T14:26:52.832Z,6.08
2022-12-01T14:30:54.557Z,6.08
2022-12-01T14:35:01.497Z,6.06
2022-12-01T14:39:19.944Z,6.03
2022-12-01T14:43:40.847Z,5.99
2022-12-01T14:47:49.494Z,5.97
2022-12-01T14:51:59.113Z,5.92
2022-12-01T14:56:18.132Z,5.89
2022-12-01T15:00:25.125Z,5.85
2022-12-01T15:04:27.032Z,5.80
2022-12-01T15:12:54.100Z,5.73
2022-12-01T15:16:56.381Z,5.68
2022-12-01T15:21:10.229Z,5.63
2022-12-01T15:25:15.304Z,5.58
2022-12-01T15:29:23.825Z,5.56
2022-12-01T15:33:36.599Z,5.51
2022-12-01T15:37:44.039Z,5.46
2022-12-01T15:41:48.367Z,5.42
2022-12-01T15:45:59.318Z,5.38
2022-12-01T15:50:01.055Z,5.34
2022-12-01T15:54:03.733Z,5.29
2022-12-01T15:58:09.989Z,5.26
2022-12-01T16:02:20.571Z,5.23
2022-12-01T16:06:30.019Z,5.18
2022-12-01T16:10:35.986Z,5.14
2022-12-01T16:14:50.314Z,5.12
2022-12-01T16:18:55.696Z,5.07
2022-12-01T16:23:03.272Z,5.04
2022-12-01T16:27:16.882Z,4.98
2022-12-01T16:31:20.057Z,4.96
2022-12-01T16:35:21.748Z,4.95
2022-12-01T16:39:23.474Z,4.95
2022-12-01T16:43:27.717Z,4.95
2022-12-01T16:47:32.278Z,4.97
2022-12-01T16:51:54.856Z,5.11
2022-12-01T16:56:00.487Z,5.18
2022-12-01T17:00:02.440Z,5.20
2022-12-01T17:04:07.569Z,5.20
2022-12-01T17:08:09.721Z,5.22
2022-12-01T17:12:11.551Z,5.22
2022-12-01T17:16:18.132Z,5.18
2022-12-01T17:20:20.386Z,5.15
2022-12-01T17:24:22.101Z,5.09
2022-12-01T17:28:23.819Z,5.07
2022-12-01T17:32:26.432Z,5.06
2022-12-01T17:36:28.093Z,5.04
2022-12-01T17:40:29.965Z,5.00
2022-12-01T17:44:31.688Z,4.97
2022-12-01T17:48:42.006Z,4.95
2022-12-01T17:52:43.721Z,4.92
2022-12-01T17:56:45.598Z,4.90
2022-12-01T18:00:50.602Z,4.87
2022-12-01T18:04:52.573Z,4.86
2022-12-01T18:08:55.016Z,4.84
2022-12-01T18:12:56.799Z,4.79
2022-12-01T18:16:58.520Z,4.74
2022-12-01T18:21:05.650Z,4.74
2022-12-01T18:25:07.706Z,4.77
2022-12-01T18:29:18.791Z,4.76
2022-12-01T18:33:21.049Z,4.73
2022-12-01T18:37:22.913Z,4.70
2022-12-01T18:41:25.378Z,4.70
2022-12-01T18:45:27.048Z,4.69
2022-12-01T18:49:28.738Z,4.71
2022-12-01T18:53:30.885Z,4.72
2022-12-01T18:57:32.675Z,4.75
2022-12-01T19:01:40.188Z,4.78
2022-12-01T19:05:42.073Z,4.79
2022-12-01T19:09:43.793Z,4.81
2022-12-01T19:13:45.871Z,4.81
2022-12-01T19:17:47.644Z,4.84
2022-12-01T19:21:50.462Z,4.86
2022-12-01T19:25:52.233Z,4.89
2022-12-01T19:29:54.849Z,4.90
2022-12-01T19:33:56.831Z,4.90
2022-12-01T19:37:59.733Z,4.90
2022-12-01T19:42:01.408Z,4.88
2022-12-01T19:46:11.927Z,4.85
2022-12-01T19:50:13.757Z,4.88
2022-12-01T19:54:20.216Z,4.89
2022-12-01T19:58:22.238Z,4.89
2022-12-01T20:02:28.919Z,4.92
2022-12-01T20:06:33.525Z,4.93
2022-12-01T20:10:35.161Z,4.95
2022-12-01T20:14:36.937Z,4.96
2022-12-01T20:18:39.437Z,5.01
2022-12-01T20:22:41.181Z,5.05
2022-12-01T20:26:47.113Z,5.07
2022-12-01T20:30:48.747Z,5.07
2022-12-01T20:34:50.881Z,5.08
2022-12-01T20:38:52.803Z,5.08
2022-12-01T20:42:54.522Z,5.07
2022-12-01T20:46:56.988Z,5.07
2022-12-01T20:51:04.209Z,5.09
2022-12-01T20:55:06.817Z,5.08
2022-12-01T20:59:08.592Z,5.08
2022-12-01T21:03:11.280Z,5.08
2022-12-01T21:07:12.951Z,5.08
2022-12-01T21:11:44.476Z,5.09
2022-12-01T21:15:54.690Z,5.09
2022-12-01T21:20:01.819Z,5.10
2022-12-01T21:24:13.729Z,5.04
2022-12-01T21:28:21.272Z,5.00
2022-12-01T21:32:33.474Z,4.98
2022-12-01T21:36:35.221Z,4.95
2022-12-01T21:40:36.937Z,4.95
2022-12-01T21:44:39.504Z,4.93
2022-12-01T21:48:42.341Z,4.91
2022-12-01T21:52:46.234Z,4.88
2022-12-01T21:56:58.416Z,4.86
2022-12-01T22:01:00.883Z,4.84
2022-12-01T22:05:02.657Z,4.82
2022-12-01T22:09:22.444Z,4.78
2022-12-01T22:13:36.158Z,4.77
2022-12-01T22:17:37.988Z,4.76
2022-12-01T22:21:44.163Z,4.77
2022-12-01T22:25:47.566Z,4.77
2022-12-01T22:29:51.826Z,4.77
2022-12-01T22:34:02.871Z,4.76
2022-12-01T22:38:11.009Z,4.74
2022-12-01T22:42:27.884Z,4.73
2022-12-01T22:46:34.904Z,4.71
2022-12-01T22:50:37.365Z,4.70
2022-12-01T22:54:43.485Z,4.71
2022-12-01T22:58:45.205Z,4.71
2022-12-01T23:02:52.450Z,4.69
2022-12-01T23:07:00.279Z,4.68
2022-12-01T23:11:01.961Z,4.62
2022-12-01T23:15:39.486Z,4.66
2022-12-01T23:19:41.250Z,4.67
2022-12-01T23:23:43.008Z,4.67
2022-12-01T23:27:46.953Z,4.63
2022-12-01T23:31:50.452Z,4.64
2022-12-01T23:36:01.014Z,4.66
2022-12-01T23:40:15.149Z,4.67
2022-12-01T23:44:34.965Z,4.69
2022-12-01T23:48:49.570Z,4.67
2022-12-01T23:52:51.932Z,4.71
2022-12-01T23:56:57.676Z,4.70
